METAR Data
IDs: Format: Raw Decoded Include TAF

Data at: 1624 UTC 03 Dec 2021

KHIO 031553Z 00000KT 10SM FEW120 M01/M01 A3027 RMK AO2 SLP254 I1000 T10061011
KHIO 031453Z AUTO 00000KT 10SM CLR M01/M02 A3028 RMK AO2 SLP255 T10111017 58006
KHIO 031353Z AUTO 00000KT 10SM CLR 00/M01 A3029 RMK AO2 SLP259 T00001011
KHIO 031253Z AUTO 00000KT 10SM CLR 00/M01 A3030 RMK AO2 SLP262 T00001006
KHIO 031153Z AUTO 00000KT 10SM CLR 00/M01 A3030 RMK AO2 SLP260 T00001006 10050 20000 58005
KHIO 031053Z AUTO 29004KT 10SM CLR 02/01 A3031 RMK AO2 SLP265 T00170006
KHIO 030953Z AUTO 30003KT 10SM CLR 02/01 A3031 RMK AO2 SLP266 T00170006
KHIO 030853Z AUTO 32003KT 10SM CLR 03/01 A3031 RMK AO2 SLP265 T00280006 58008
KHIO 030753Z AUTO 30005KT 10SM CLR 03/02 A3034 RMK AO2 SLP275 T00280017 401170028
KHIO 030653Z AUTO 29005KT 10SM CLR 04/02 A3034 RMK AO2 SLP275 T00390022
KHIO 030553Z AUTO 31004KT 10SM CLR 04/03 A3033 RMK AO2 SLP273 T00440033 10094 20044 58002
KHIO 030453Z 30004KT 10SM CLR 05/03 A3034 RMK AO2 SLP275 T00500033
KHIO 030353Z 29003KT 10SM FEW050 06/03 A3035 RMK AO2 SLP278 T00560028
KHIO 030253Z 31003KT 10SM FEW049 06/03 A3034 RMK AO2 SLP276 T00560033 53008
KHIO 030153Z 30005KT 10SM BKN048 07/03 A3033 RMK AO2 SLP270 T00670033
KHIO 030053Z 31010KT 10SM OVC050 08/04 A3032 RMK AO2 SLP268 T00830044
KHIO 022353Z 35006KT 10SM OVC047 09/03 A3032 RMK AO2 SLP266 T00940033 10117 20094 53004
KHIO 022253Z 34007KT 10SM OVC044 10/03 A3031 RMK AO2 SLP265 T01000033
KHIO 022153Z 33005KT 10SM BKN042 OVC050 11/03 A3030 RMK AO2 SLP261 T01110033
KHIO 022053Z 33010KT 10SM OVC037 11/04 A3030 RMK AO2 SLP262 T01060044 51001
KHIO 021953Z 33008KT 10SM OVC043 11/05 A3030 RMK AO2 SLP262 T01110050
KHIO 021853Z 34006KT 10SM FEW038 11/06 A3031 RMK AO2 SLP265 T01060061
KHIO 021753Z 31003KT 10SM CLR 11/07 A3030 RMK AO2 SLP261 T01060072 10111 20067 51015
KHIO 021653Z 00000KT 10SM CLR 08/07 A3030 RMK AO2 SLP260 T00780067
KHIO 021553Z 36003KT 10SM BKN035 07/06 A3027 RMK AO2 SLP251 T00670056
KHIO 021459Z 00000KT 10SM BKN035 08/07 A3026 RMK AO2 T00830067
KHIO 021453Z 00000KT 10SM BKN029 BKN035 09/07 A3026 RMK AO2 SLP246 T00890067 53011
KHIO 021353Z AUTO 00000KT 10SM BKN029 BKN035 09/08 A3023 RMK AO2 SLP238 T00890078
KHIO 021253Z AUTO 28003KT 9SM FEW004 OVC022 09/09 A3023 RMK AO2 SLP237 T00890089 $
KHIO 021241Z AUTO 00000KT 7SM SCT002 OVC022 09/09 A3023 RMK AO2 T00890089 $
KHIO 021229Z AUTO 00000KT 5SM BR BKN002 BKN017 OVC022 09/09 A3023 RMK AO2 T00940094 $
KHIO 021220Z AUTO 00000KT 2SM R13R/5000VP6000FT BR BKN002 OVC017 09/09 A3022 RMK AO2 T00940094 $
KHIO 021211Z AUTO 35004KT 1SM R13R/3500VP6000FT BR SCT002 OVC019 09/09 A3023 RMK AO2 T00890089 $
KHIO 021153Z AUTO 32003KT 1/2SM R13R/3000VP6000FT FG OVC021 08/08 A3022 RMK AO2 SLP234 T00830083 10100 20083 53003 $
KHIO 021135Z AUTO 00000KT 1/4SM R13R/1600V2800FT FG FEW002 BKN023 OVC050 08/08 A3020 RMK AO2 T00830083 $
KHIO 021128Z AUTO 00000KT 1/2SM R13R/1600V2600FT FG SCT002 BKN023 OVC050 09/09 A3022 RMK AO2 T00890089 $
KHIO 021119Z AUTO 00000KT 1 3/4SM R13R/2600VP6000FT BR FEW002 OVC050 08/08 A3021 RMK AO2 T00830083
KHIO 021053Z AUTO 00000KT 3/4SM R13R/4500VP6000FT BR FEW027 SCT050 08/08 A3020 RMK AO2 SLP228 T00830083
KHIO 021042Z AUTO 00000KT 2 1/2SM BR SCT027 09/09 A3021 RMK AO2 T00940094
KHIO 021018Z AUTO 00000KT 3SM BR OVC028 10/10 A3021 RMK AO2 T01000100
KHIO 020953Z AUTO 00000KT 3SM BR OVC032 09/09 A3021 RMK AO2 SLP231 T00940094
KHIO 020951Z AUTO 15003KT 3SM BR OVC032 09/09 A3021 RMK AO2
KHIO 020937Z AUTO 16003KT 2SM BR BKN034 BKN048 OVC100 09/09 A3021 RMK AO2 T00940089
KHIO 020853Z AUTO 00000KT 4SM BR OVC045 10/09 A3021 RMK AO2 SLP230 T01000094 50010
KHIO 020753Z AUTO 00000KT 5SM BR OVC100 09/09 A3021 RMK AO2 SLP231 T00940094 401170050
KHIO 020730Z AUTO 00000KT 3SM BR OVC100 10/09 A3021 RMK AO2 T01000094
KHIO 020709Z AUTO 00000KT 1 3/4SM BR OVC095 09/09 A3021 RMK AO2 T00940094
KHIO 020653Z AUTO 00000KT 5SM BR FEW025 OVC090 10/09 A3019 RMK AO2 SLP222 T01000094
KHIO 020553Z AUTO 04003KT 5SM BR OVC090 10/10 A3018 RMK AO2 SLP220 T01000100 10111 20094 53008
KHIO 020453Z 00000KT 6SM BR OVC095 10/10 A3017 RMK AO2 SLP216 T01000100